sensor_id;sensor_type;location;lat;lon;timestamp;P1;durP1;ratioP1;P2;durP2;ratioP2
16199;SDS011;8207;52.494;4.654;2022-09-09T00:00:12;6.88;;;3.83;;
16199;SDS011;8207;52.494;4.654;2022-09-09T00:02:40;7.85;;;4.03;;
16199;SDS011;8207;52.494;4.654;2022-09-09T00:05:13;5.75;;;3.80;;
16199;SDS011;8207;52.494;4.654;2022-09-09T00:07:50;6.03;;;3.92;;
16199;SDS011;8207;52.494;4.654;2022-09-09T00:10:21;5.10;;;3.95;;
16199;SDS011;8207;52.494;4.654;2022-09-09T00:12:54;6.90;;;4.43;;
16199;SDS011;8207;52.494;4.654;2022-09-09T00:15:29;7.50;;;3.97;;
16199;SDS011;8207;52.494;4.654;2022-09-09T00:18:03;5.70;;;4.38;;
16199;SDS011;8207;52.494;4.654;2022-09-09T00:20:40;7.05;;;4.45;;
16199;SDS011;8207;52.494;4.654;2022-09-09T00:23:18;7.03;;;4.22;;
16199;SDS011;8207;52.494;4.654;2022-09-09T00:25:53;5.28;;;4.55;;
16199;SDS011;8207;52.494;4.654;2022-09-09T00:28:27;7.55;;;5.00;;
16199;SDS011;8207;52.494;4.654;2022-09-09T00:30:57;6.63;;;4.80;;
16199;SDS011;8207;52.494;4.654;2022-09-09T00:33:28;5.55;;;4.18;;
16199;SDS011;8207;52.494;4.654;2022-09-09T00:35:57;8.18;;;4.60;;
16199;SDS011;8207;52.494;4.654;2022-09-09T00:38:28;7.72;;;4.32;;
16199;SDS011;8207;52.494;4.654;2022-09-09T00:41:00;7.85;;;4.45;;
16199;SDS011;8207;52.494;4.654;2022-09-09T00:43:35;7.57;;;5.00;;
16199;SDS011;8207;52.494;4.654;2022-09-09T00:49:09;8.13;;;5.82;;
16199;SDS011;8207;52.494;4.654;2022-09-09T00:51:45;9.32;;;6.10;;
16199;SDS011;8207;52.494;4.654;2022-09-09T00:54:30;7.88;;;5.95;;
16199;SDS011;8207;52.494;4.654;2022-09-09T00:57:07;10.00;;;5.40;;
16199;SDS011;8207;52.494;4.654;2022-09-09T00:59:45;6.28;;;5.65;;
16199;SDS011;8207;52.494;4.654;2022-09-09T01:02:15;7.65;;;5.47;;
16199;SDS011;8207;52.494;4.654;2022-09-09T01:04:49;7.93;;;6.28;;
16199;SDS011;8207;52.494;4.654;2022-09-09T01:07:16;8.13;;;6.03;;
16199;SDS011;8207;52.494;4.654;2022-09-09T01:09:52;9.90;;;6.80;;
16199;SDS011;8207;52.494;4.654;2022-09-09T01:12:28;10.23;;;6.50;;
16199;SDS011;8207;52.494;4.654;2022-09-09T01:15:07;9.82;;;7.20;;
16199;SDS011;8207;52.494;4.654;2022-09-09T01:17:39;10.40;;;7.32;;
16199;SDS011;8207;52.494;4.654;2022-09-09T01:20:17;9.00;;;6.28;;
16199;SDS011;8207;52.494;4.654;2022-09-09T01:22:52;7.40;;;6.72;;
16199;SDS011;8207;52.494;4.654;2022-09-09T01:28:45;8.10;;;7.30;;
16199;SDS011;8207;52.494;4.654;2022-09-09T01:31:15;13.73;;;8.23;;
16199;SDS011;8207;52.494;4.654;2022-09-09T01:33:44;11.07;;;8.30;;
16199;SDS011;8207;52.494;4.654;2022-09-09T01:36:12;10.85;;;7.70;;
16199;SDS011;8207;52.494;4.654;2022-09-09T01:38:44;8.27;;;7.32;;
16199;SDS011;8207;52.494;4.654;2022-09-09T01:41:11;10.10;;;7.30;;
16199;SDS011;8207;52.494;4.654;2022-09-09T01:43:38;13.50;;;8.77;;
16199;SDS011;8207;52.494;4.654;2022-09-09T01:46:06;9.75;;;6.93;;
16199;SDS011;8207;52.494;4.654;2022-09-09T01:48:33;10.17;;;8.03;;
16199;SDS011;8207;52.494;4.654;2022-09-09T01:51:00;11.17;;;8.30;;
16199;SDS011;8207;52.494;4.654;2022-09-09T01:53:27;11.13;;;8.60;;
16199;SDS011;8207;52.494;4.654;2022-09-09T01:55:56;11.60;;;9.40;;
16199;SDS011;8207;52.494;4.654;2022-09-09T01:58:34;13.57;;;9.63;;
16199;SDS011;8207;52.494;4.654;2022-09-09T02:01:13;12.90;;;10.30;;
16199;SDS011;8207;52.494;4.654;2022-09-09T02:03:44;13.03;;;10.33;;
16199;SDS011;8207;52.494;4.654;2022-09-09T02:06:20;15.55;;;11.45;;
16199;SDS011;8207;52.494;4.654;2022-09-09T02:08:54;13.43;;;10.95;;
16199;SDS011;8207;52.494;4.654;2022-09-09T02:11:22;15.23;;;10.90;;
16199;SDS011;8207;52.494;4.654;2022-09-09T02:13:51;14.93;;;10.73;;
16199;SDS011;8207;52.494;4.654;2022-09-09T02:16:24;14.10;;;11.80;;
16199;SDS011;8207;52.494;4.654;2022-09-09T02:18:55;14.45;;;11.80;;
16199;SDS011;8207;52.494;4.654;2022-09-09T02:21:27;18.20;;;13.27;;
16199;SDS011;8207;52.494;4.654;2022-09-09T02:23:56;17.15;;;13.25;;
16199;SDS011;8207;52.494;4.654;2022-09-09T02:26:29;19.27;;;14.15;;
16199;SDS011;8207;52.494;4.654;2022-09-09T02:29:01;18.60;;;14.20;;
16199;SDS011;8207;52.494;4.654;2022-09-09T02:31:32;18.65;;;14.80;;
16199;SDS011;8207;52.494;4.654;2022-09-09T02:34:01;18.40;;;14.13;;
16199;SDS011;8207;52.494;4.654;2022-09-09T02:36:32;15.70;;;13.37;;
16199;SDS011;8207;52.494;4.654;2022-09-09T02:39:01;18.70;;;15.50;;
16199;SDS011;8207;52.494;4.654;2022-09-09T02:41:32;17.90;;;14.57;;
16199;SDS011;8207;52.494;4.654;2022-09-09T02:44:01;19.53;;;14.07;;
16199;SDS011;8207;52.494;4.654;2022-09-09T02:46:36;16.92;;;13.85;;
16199;SDS011;8207;52.494;4.654;2022-09-09T02:49:25;16.80;;;13.52;;
16199;SDS011;8207;52.494;4.654;2022-09-09T02:51:57;22.83;;;15.67;;
16199;SDS011;8207;52.494;4.654;2022-09-09T02:54:28;19.83;;;15.77;;
16199;SDS011;8207;52.494;4.654;2022-09-09T02:56:59;17.10;;;15.23;;
16199;SDS011;8207;52.494;4.654;2022-09-09T02:59:29;20.17;;;16.27;;
16199;SDS011;8207;52.494;4.654;2022-09-09T03:01:58;19.85;;;16.25;;
16199;SDS011;8207;52.494;4.654;2022-09-09T03:04:26;23.53;;;16.80;;
16199;SDS011;8207;52.494;4.654;2022-09-09T03:06:53;21.00;;;17.97;;
16199;SDS011;8207;52.494;4.654;2022-09-09T03:09:20;21.87;;;17.57;;
16199;SDS011;8207;52.494;4.654;2022-09-09T03:11:47;26.63;;;19.47;;
16199;SDS011;8207;52.494;4.654;2022-09-09T03:14:14;19.63;;;17.23;;
16199;SDS011;8207;52.494;4.654;2022-09-09T03:16:41;20.73;;;17.00;;
16199;SDS011;8207;52.494;4.654;2022-09-09T03:19:09;23.17;;;17.90;;
16199;SDS011;8207;52.494;4.654;2022-09-09T03:21:36;20.88;;;18.48;;
16199;SDS011;8207;52.494;4.654;2022-09-09T03:24:03;23.47;;;18.10;;
16199;SDS011;8207;52.494;4.654;2022-09-09T03:26:31;24.33;;;18.88;;
16199;SDS011;8207;52.494;4.654;2022-09-09T03:28:58;21.07;;;16.30;;
16199;SDS011;8207;52.494;4.654;2022-09-09T03:31:26;21.63;;;17.30;;
16199;SDS011;8207;52.494;4.654;2022-09-09T03:33:55;22.27;;;18.13;;
16199;SDS011;8207;52.494;4.654;2022-09-09T03:36:24;19.03;;;17.03;;
16199;SDS011;8207;52.494;4.654;2022-09-09T03:38:53;23.57;;;17.97;;
16199;SDS011;8207;52.494;4.654;2022-09-09T03:41:20;19.93;;;17.30;;
16199;SDS011;8207;52.494;4.654;2022-09-09T03:43:48;17.80;;;15.77;;
16199;SDS011;8207;52.494;4.654;2022-09-09T03:46:15;20.50;;;15.87;;
16199;SDS011;8207;52.494;4.654;2022-09-09T03:48:42;19.40;;;15.17;;
16199;SDS011;8207;52.494;4.654;2022-09-09T03:51:10;17.40;;;14.67;;
16199;SDS011;8207;52.494;4.654;2022-09-09T03:53:38;17.83;;;14.70;;
16199;SDS011;8207;52.494;4.654;2022-09-09T03:56:06;17.35;;;14.43;;
16199;SDS011;8207;52.494;4.654;2022-09-09T03:58:33;17.10;;;13.70;;
16199;SDS011;8207;52.494;4.654;2022-09-09T04:01:02;14.47;;;12.93;;
16199;SDS011;8207;52.494;4.654;2022-09-09T04:03:31;15.70;;;13.10;;
16199;SDS011;8207;52.494;4.654;2022-09-09T04:05:59;14.18;;;12.65;;
16199;SDS011;8207;52.494;4.654;2022-09-09T04:08:27;13.93;;;12.48;;
16199;SDS011;8207;52.494;4.654;2022-09-09T04:10:57;15.07;;;13.07;;
16199;SDS011;8207;52.494;4.654;2022-09-09T04:13:25;15.83;;;12.73;;
16199;SDS011;8207;52.494;4.654;2022-09-09T04:15:52;14.10;;;11.73;;
16199;SDS011;8207;52.494;4.654;2022-09-09T04:18:21;14.20;;;11.30;;
16199;SDS011;8207;52.494;4.654;2022-09-09T04:20:48;18.23;;;12.83;;
16199;SDS011;8207;52.494;4.654;2022-09-09T04:23:16;15.33;;;12.73;;
16199;SDS011;8207;52.494;4.654;2022-09-09T04:25:45;18.27;;;13.77;;
16199;SDS011;8207;52.494;4.654;2022-09-09T04:28:14;15.77;;;11.97;;
16199;SDS011;8207;52.494;4.654;2022-09-09T04:30:43;20.00;;;12.93;;
16199;SDS011;8207;52.494;4.654;2022-09-09T04:33:10;15.57;;;11.90;;
16199;SDS011;8207;52.494;4.654;2022-09-09T04:35:38;14.80;;;11.93;;
16199;SDS011;8207;52.494;4.654;2022-09-09T04:38:05;13.80;;;11.93;;
16199;SDS011;8207;52.494;4.654;2022-09-09T04:40:34;16.27;;;11.47;;
16199;SDS011;8207;52.494;4.654;2022-09-09T04:43:02;16.63;;;12.83;;
16199;SDS011;8207;52.494;4.654;2022-09-09T04:45:31;14.53;;;12.90;;
16199;SDS011;8207;52.494;4.654;2022-09-09T04:47:58;17.37;;;12.73;;
16199;SDS011;8207;52.494;4.654;2022-09-09T04:50:25;14.90;;;13.30;;
16199;SDS011;8207;52.494;4.654;2022-09-09T04:52:53;19.83;;;13.23;;
16199;SDS011;8207;52.494;4.654;2022-09-09T04:55:20;15.60;;;12.43;;
16199;SDS011;8207;52.494;4.654;2022-09-09T04:57:47;18.47;;;12.50;;
16199;SDS011;8207;52.494;4.654;2022-09-09T05:00:14;15.97;;;12.63;;
16199;SDS011;8207;52.494;4.654;2022-09-09T05:02:43;14.00;;;12.20;;
16199;SDS011;8207;52.494;4.654;2022-09-09T05:05:10;13.73;;;11.87;;
16199;SDS011;8207;52.494;4.654;2022-09-09T05:07:37;18.43;;;12.23;;
16199;SDS011;8207;52.494;4.654;2022-09-09T05:10:04;16.87;;;11.40;;
16199;SDS011;8207;52.494;4.654;2022-09-09T05:12:31;13.67;;;12.20;;
16199;SDS011;8207;52.494;4.654;2022-09-09T05:14:58;17.97;;;11.77;;
16199;SDS011;8207;52.494;4.654;2022-09-09T05:17:25;12.70;;;10.10;;
16199;SDS011;8207;52.494;4.654;2022-09-09T05:19:54;14.20;;;10.60;;
16199;SDS011;8207;52.494;4.654;2022-09-09T05:22:20;12.33;;;10.20;;
16199;SDS011;8207;52.494;4.654;2022-09-09T05:24:48;11.73;;;9.07;;
16199;SDS011;8207;52.494;4.654;2022-09-09T05:27:15;13.57;;;9.30;;
16199;SDS011;8207;52.494;4.654;2022-09-09T05:29:44;12.43;;;9.00;;
16199;SDS011;8207;52.494;4.654;2022-09-09T05:32:11;13.57;;;8.83;;
16199;SDS011;8207;52.494;4.654;2022-09-09T05:34:40;11.73;;;8.53;;
16199;SDS011;8207;52.494;4.654;2022-09-09T05:37:08;15.60;;;8.70;;
16199;SDS011;8207;52.494;4.654;2022-09-09T05:39:35;13.53;;;7.93;;
16199;SDS011;8207;52.494;4.654;2022-09-09T05:42:03;12.23;;;8.40;;
16199;SDS011;8207;52.494;4.654;2022-09-09T05:44:30;10.63;;;7.43;;
16199;SDS011;8207;52.494;4.654;2022-09-09T05:46:57;10.30;;;7.63;;
16199;SDS011;8207;52.494;4.654;2022-09-09T05:49:24;9.27;;;7.23;;
16199;SDS011;8207;52.494;4.654;2022-09-09T05:51:51;11.33;;;7.43;;
16199;SDS011;8207;52.494;4.654;2022-09-09T05:54:20;9.57;;;7.20;;
16199;SDS011;8207;52.494;4.654;2022-09-09T05:56:47;10.80;;;7.70;;
16199;SDS011;8207;52.494;4.654;2022-09-09T05:59:14;11.50;;;7.73;;
16199;SDS011;8207;52.494;4.654;2022-09-09T06:01:41;10.77;;;6.67;;
16199;SDS011;8207;52.494;4.654;2022-09-09T06:04:09;10.03;;;6.87;;
16199;SDS011;8207;52.494;4.654;2022-09-09T06:06:36;10.10;;;6.43;;
16199;SDS011;8207;52.494;4.654;2022-09-09T06:09:05;8.68;;;6.43;;
16199;SDS011;8207;52.494;4.654;2022-09-09T06:11:36;11.10;;;7.00;;
16199;SDS011;8207;52.494;4.654;2022-09-09T06:14:04;12.10;;;6.50;;
16199;SDS011;8207;52.494;4.654;2022-09-09T06:16:31;10.17;;;6.17;;
16199;SDS011;8207;52.494;4.654;2022-09-09T06:18:59;11.33;;;5.80;;
16199;SDS011;8207;52.494;4.654;2022-09-09T06:21:28;7.50;;;5.60;;
16199;SDS011;8207;52.494;4.654;2022-09-09T06:23:57;12.97;;;6.30;;
16199;SDS011;8207;52.494;4.654;2022-09-09T06:26:26;12.43;;;6.23;;
16199;SDS011;8207;52.494;4.654;2022-09-09T06:28:55;8.85;;;5.90;;
16199;SDS011;8207;52.494;4.654;2022-09-09T06:31:23;9.33;;;5.53;;
16199;SDS011;8207;52.494;4.654;2022-09-09T06:33:52;11.63;;;5.83;;
16199;SDS011;8207;52.494;4.654;2022-09-09T06:36:21;10.25;;;5.45;;
16199;SDS011;8207;52.494;4.654;2022-09-09T06:38:49;10.18;;;5.78;;
16199;SDS011;8207;52.494;4.654;2022-09-09T06:41:17;9.57;;;5.32;;
16199;SDS011;8207;52.494;4.654;2022-09-09T06:43:45;11.07;;;5.23;;
16199;SDS011;8207;52.494;4.654;2022-09-09T06:46:14;12.27;;;5.60;;
16199;SDS011;8207;52.494;4.654;2022-09-09T06:48:43;11.10;;;5.17;;
16199;SDS011;8207;52.494;4.654;2022-09-09T06:51:12;9.70;;;4.67;;
16199;SDS011;8207;52.494;4.654;2022-09-09T06:53:40;11.13;;;4.90;;
16199;SDS011;8207;52.494;4.654;2022-09-09T06:56:17;11.37;;;4.50;;
16199;SDS011;8207;52.494;4.654;2022-09-09T06:58:46;7.43;;;5.13;;
16199;SDS011;8207;52.494;4.654;2022-09-09T07:01:16;13.75;;;5.40;;
16199;SDS011;8207;52.494;4.654;2022-09-09T07:03:45;8.00;;;4.80;;
16199;SDS011;8207;52.494;4.654;2022-09-09T07:06:14;8.13;;;4.97;;
16199;SDS011;8207;52.494;4.654;2022-09-09T07:08:43;9.90;;;4.65;;
16199;SDS011;8207;52.494;4.654;2022-09-09T07:11:10;15.43;;;5.50;;
16199;SDS011;8207;52.494;4.654;2022-09-09T07:13:37;13.80;;;5.57;;
16199;SDS011;8207;52.494;4.654;2022-09-09T07:16:04;13.98;;;6.68;;
16199;SDS011;8207;52.494;4.654;2022-09-09T07:18:33;11.70;;;6.43;;
16199;SDS011;8207;52.494;4.654;2022-09-09T07:21:00;12.95;;;6.45;;
16199;SDS011;8207;52.494;4.654;2022-09-09T07:23:28;10.80;;;6.22;;
16199;SDS011;8207;52.494;4.654;2022-09-09T07:25:56;9.00;;;5.47;;
16199;SDS011;8207;52.494;4.654;2022-09-09T07:28:23;11.10;;;5.75;;
16199;SDS011;8207;52.494;4.654;2022-09-09T07:30:54;12.15;;;5.60;;
16199;SDS011;8207;52.494;4.654;2022-09-09T07:33:21;11.75;;;6.03;;
16199;SDS011;8207;52.494;4.654;2022-09-09T07:35:50;8.63;;;5.78;;
16199;SDS011;8207;52.494;4.654;2022-09-09T07:38:17;8.98;;;5.43;;
16199;SDS011;8207;52.494;4.654;2022-09-09T07:40:44;8.02;;;4.85;;
16199;SDS011;8207;52.494;4.654;2022-09-09T07:43:11;7.55;;;5.55;;
16199;SDS011;8207;52.494;4.654;2022-09-09T07:45:39;9.57;;;5.82;;
16199;SDS011;8207;52.494;4.654;2022-09-09T07:48:07;11.20;;;5.40;;
16199;SDS011;8207;52.494;4.654;2022-09-09T07:50:35;9.10;;;5.90;;
16199;SDS011;8207;52.494;4.654;2022-09-09T07:53:03;11.30;;;6.10;;
16199;SDS011;8207;52.494;4.654;2022-09-09T07:55:31;15.50;;;6.03;;
16199;SDS011;8207;52.494;4.654;2022-09-09T07:57:58;12.95;;;5.50;;
16199;SDS011;8207;52.494;4.654;2022-09-09T08:00:25;10.98;;;5.63;;
16199;SDS011;8207;52.494;4.654;2022-09-09T08:02:52;20.88;;;7.13;;
16199;SDS011;8207;52.494;4.654;2022-09-09T08:05:20;15.30;;;6.35;;
16199;SDS011;8207;52.494;4.654;2022-09-09T08:07:47;8.65;;;6.45;;
16199;SDS011;8207;52.494;4.654;2022-09-09T08:10:16;7.88;;;5.43;;
16199;SDS011;8207;52.494;4.654;2022-09-09T08:12:43;10.13;;;5.50;;
16199;SDS011;8207;52.494;4.654;2022-09-09T08:15:10;8.27;;;4.65;;
16199;SDS011;8207;52.494;4.654;2022-09-09T08:17:37;13.93;;;6.53;;
16199;SDS011;8207;52.494;4.654;2022-09-09T08:20:05;7.75;;;4.50;;
16199;SDS011;8207;52.494;4.654;2022-09-09T08:22:32;8.45;;;5.05;;
16199;SDS011;8207;52.494;4.654;2022-09-09T08:24:59;10.18;;;5.38;;
16199;SDS011;8207;52.494;4.654;2022-09-09T08:27:28;11.57;;;5.13;;
16199;SDS011;8207;52.494;4.654;2022-09-09T08:29:57;6.85;;;4.00;;
16199;SDS011;8207;52.494;4.654;2022-09-09T08:32:24;8.93;;;4.85;;
16199;SDS011;8207;52.494;4.654;2022-09-09T08:34:51;10.20;;;4.63;;
16199;SDS011;8207;52.494;4.654;2022-09-09T08:37:18;10.15;;;4.45;;
16199;SDS011;8207;52.494;4.654;2022-09-09T08:39:45;10.98;;;4.85;;
16199;SDS011;8207;52.494;4.654;2022-09-09T08:48:12;10.45;;;4.57;;
16199;SDS011;8207;52.494;4.654;2022-09-09T08:50:47;6.40;;;4.57;;
16199;SDS011;8207;52.494;4.654;2022-09-09T08:53:17;13.23;;;4.60;;
16199;SDS011;8207;52.494;4.654;2022-09-09T08:55:51;11.40;;;4.57;;
16199;SDS011;8207;52.494;4.654;2022-09-09T08:58:22;7.43;;;4.65;;
16199;SDS011;8207;52.494;4.654;2022-09-09T09:01:05;10.30;;;4.43;;
16199;SDS011;8207;52.494;4.654;2022-09-09T09:03:46;11.43;;;4.60;;
16199;SDS011;8207;52.494;4.654;2022-09-09T09:06:23;7.03;;;4.20;;
16199;SDS011;8207;52.494;4.654;2022-09-09T09:09:01;8.32;;;4.65;;
16199;SDS011;8207;52.494;4.654;2022-09-09T09:11:35;9.95;;;4.90;;
16199;SDS011;8207;52.494;4.654;2022-09-09T09:14:08;8.70;;;4.13;;
16199;SDS011;8207;52.494;4.654;2022-09-09T09:16:38;7.05;;;4.07;;
16199;SDS011;8207;52.494;4.654;2022-09-09T09:19:14;9.10;;;3.90;;
16199;SDS011;8207;52.494;4.654;2022-09-09T09:21:43;8.70;;;4.32;;
16199;SDS011;8207;52.494;4.654;2022-09-09T09:24:16;8.18;;;3.80;;
16199;SDS011;8207;52.494;4.654;2022-09-09T09:26:45;6.90;;;3.45;;
16199;SDS011;8207;52.494;4.654;2022-09-09T09:29:15;7.15;;;3.45;;
16199;SDS011;8207;52.494;4.654;2022-09-09T09:31:45;8.40;;;4.40;;
16199;SDS011;8207;52.494;4.654;2022-09-09T09:34:17;5.57;;;3.90;;
16199;SDS011;8207;52.494;4.654;2022-09-09T09:36:44;13.55;;;4.22;;
16199;SDS011;8207;52.494;4.654;2022-09-09T09:39:22;8.50;;;3.85;;
16199;SDS011;8207;52.494;4.654;2022-09-09T09:41:50;8.48;;;4.70;;
16199;SDS011;8207;52.494;4.654;2022-09-09T09:44:26;9.20;;;4.82;;
16199;SDS011;8207;52.494;4.654;2022-09-09T09:47:05;8.43;;;4.57;;
16199;SDS011;8207;52.494;4.654;2022-09-09T09:49:33;8.50;;;3.83;;
16199;SDS011;8207;52.494;4.654;2022-09-09T09:52:00;5.25;;;3.85;;
16199;SDS011;8207;52.494;4.654;2022-09-09T09:54:28;10.85;;;4.70;;
16199;SDS011;8207;52.494;4.654;2022-09-09T09:57:06;7.97;;;4.30;;
16199;SDS011;8207;52.494;4.654;2022-09-09T09:59:36;9.65;;;3.72;;
16199;SDS011;8207;52.494;4.654;2022-09-09T10:02:18;8.40;;;4.00;;
16199;SDS011;8207;52.494;4.654;2022-09-09T10:04:48;7.07;;;3.78;;
16199;SDS011;8207;52.494;4.654;2022-09-09T10:07:17;8.52;;;4.00;;
16199;SDS011;8207;52.494;4.654;2022-09-09T10:09:45;8.00;;;3.60;;
16199;SDS011;8207;52.494;4.654;2022-09-09T10:12:19;8.10;;;4.07;;
16199;SDS011;8207;52.494;4.654;2022-09-09T10:14:56;7.95;;;3.92;;
16199;SDS011;8207;52.494;4.654;2022-09-09T10:17:30;7.43;;;3.10;;
16199;SDS011;8207;52.494;4.654;2022-09-09T10:20:10;10.02;;;4.03;;
16199;SDS011;8207;52.494;4.654;2022-09-09T10:22:47;6.05;;;3.45;;
16199;SDS011;8207;52.494;4.654;2022-09-09T10:25:29;7.63;;;3.83;;
16199;SDS011;8207;52.494;4.654;2022-09-09T10:30:57;8.10;;;3.30;;
16199;SDS011;8207;52.494;4.654;2022-09-09T10:33:36;7.15;;;3.78;;
16199;SDS011;8207;52.494;4.654;2022-09-09T10:36:12;7.50;;;3.47;;
16199;SDS011;8207;52.494;4.654;2022-09-09T10:38:44;8.32;;;3.47;;
16199;SDS011;8207;52.494;4.654;2022-09-09T10:41:18;7.30;;;3.47;;
16199;SDS011;8207;52.494;4.654;2022-09-09T10:43:54;8.88;;;3.90;;
16199;SDS011;8207;52.494;4.654;2022-09-09T10:46:34;5.78;;;3.08;;
16199;SDS011;8207;52.494;4.654;2022-09-09T10:49:15;8.85;;;4.18;;
16199;SDS011;8207;52.494;4.654;2022-09-09T10:51:53;10.63;;;3.33;;
16199;SDS011;8207;52.494;4.654;2022-09-09T10:54:30;9.30;;;3.33;;
16199;SDS011;8207;52.494;4.654;2022-09-09T10:57:09;10.48;;;3.60;;
16199;SDS011;8207;52.494;4.654;2022-09-09T10:59:43;9.32;;;3.00;;
16199;SDS011;8207;52.494;4.654;2022-09-09T11:02:17;8.23;;;3.22;;
16199;SDS011;8207;52.494;4.654;2022-09-09T11:04:53;8.82;;;2.95;;
16199;SDS011;8207;52.494;4.654;2022-09-09T11:07:25;9.15;;;2.97;;
16199;SDS011;8207;52.494;4.654;2022-09-09T11:09:59;8.60;;;3.35;;
16199;SDS011;8207;52.494;4.654;2022-09-09T11:12:31;8.90;;;2.80;;
16199;SDS011;8207;52.494;4.654;2022-09-09T11:15:05;8.23;;;2.50;;
16199;SDS011;8207;52.494;4.654;2022-09-09T11:17:43;5.65;;;2.63;;
16199;SDS011;8207;52.494;4.654;2022-09-09T11:20:14;9.98;;;2.92;;
16199;SDS011;8207;52.494;4.654;2022-09-09T11:22:43;6.97;;;2.88;;
16199;SDS011;8207;52.494;4.654;2022-09-09T11:25:15;6.03;;;2.60;;
16199;SDS011;8207;52.494;4.654;2022-09-09T11:27:49;8.25;;;2.80;;
16199;SDS011;8207;52.494;4.654;2022-09-09T11:30:25;10.07;;;2.55;;
16199;SDS011;8207;52.494;4.654;2022-09-09T11:36:05;4.85;;;3.10;;
16199;SDS011;8207;52.494;4.654;2022-09-09T11:38:51;8.32;;;3.25;;
16199;SDS011;8207;52.494;4.654;2022-09-09T11:41:19;6.50;;;3.10;;
16199;SDS011;8207;52.494;4.654;2022-09-09T11:43:47;7.00;;;3.42;;
16199;SDS011;8207;52.494;4.654;2022-09-09T11:46:17;7.97;;;3.65;;
16199;SDS011;8207;52.494;4.654;2022-09-09T11:48:57;6.32;;;3.63;;
16199;SDS011;8207;52.494;4.654;2022-09-09T11:51:27;8.15;;;3.80;;
16199;SDS011;8207;52.494;4.654;2022-09-09T11:53:55;9.48;;;3.97;;
16199;SDS011;8207;52.494;4.654;2022-09-09T11:56:27;7.88;;;3.20;;
16199;SDS011;8207;52.494;4.654;2022-09-09T11:58:57;7.85;;;3.65;;
16199;SDS011;8207;52.494;4.654;2022-09-09T12:01:29;6.88;;;3.10;;
16199;SDS011;8207;52.494;4.654;2022-09-09T12:04:21;7.38;;;3.15;;
16199;SDS011;8207;52.494;4.654;2022-09-09T12:06:58;6.20;;;2.90;;
16199;SDS011;8207;52.494;4.654;2022-09-09T12:09:40;7.20;;;2.72;;
16199;SDS011;8207;52.494;4.654;2022-09-09T12:17:59;5.13;;;2.38;;
16199;SDS011;8207;52.494;4.654;2022-09-09T12:20:30;5.70;;;2.20;;
16199;SDS011;8207;52.494;4.654;2022-09-09T12:23:04;5.63;;;2.83;;
16199;SDS011;8207;52.494;4.654;2022-09-09T12:25:49;5.65;;;2.10;;
16199;SDS011;8207;52.494;4.654;2022-09-09T12:28:27;5.05;;;2.45;;
16199;SDS011;8207;52.494;4.654;2022-09-09T12:31:08;5.72;;;2.70;;
16199;SDS011;8207;52.494;4.654;2022-09-09T12:33:42;5.65;;;2.30;;
16199;SDS011;8207;52.494;4.654;2022-09-09T12:36:12;5.50;;;2.78;;
16199;SDS011;8207;52.494;4.654;2022-09-09T12:38:43;6.20;;;2.40;;
16199;SDS011;8207;52.494;4.654;2022-09-09T12:41:17;6.13;;;2.33;;
16199;SDS011;8207;52.494;4.654;2022-09-09T12:43:46;7.63;;;2.50;;
16199;SDS011;8207;52.494;4.654;2022-09-09T12:46:16;4.80;;;2.33;;
16199;SDS011;8207;52.494;4.654;2022-09-09T12:48:54;5.85;;;2.45;;
16199;SDS011;8207;52.494;4.654;2022-09-09T12:51:23;4.18;;;2.35;;
16199;SDS011;8207;52.494;4.654;2022-09-09T12:53:55;3.60;;;1.52;;
16199;SDS011;8207;52.494;4.654;2022-09-09T12:56:23;3.63;;;1.70;;
16199;SDS011;8207;52.494;4.654;2022-09-09T12:58:53;3.58;;;1.90;;
16199;SDS011;8207;52.494;4.654;2022-09-09T13:01:22;7.22;;;1.90;;
16199;SDS011;8207;52.494;4.654;2022-09-09T13:03:51;5.43;;;2.38;;
16199;SDS011;8207;52.494;4.654;2022-09-09T13:06:20;4.47;;;2.30;;
16199;SDS011;8207;52.494;4.654;2022-09-09T13:08:48;4.10;;;2.30;;
16199;SDS011;8207;52.494;4.654;2022-09-09T13:11:18;6.57;;;2.08;;
16199;SDS011;8207;52.494;4.654;2022-09-09T13:13:51;4.07;;;2.20;;
16199;SDS011;8207;52.494;4.654;2022-09-09T13:16:21;7.18;;;2.38;;
16199;SDS011;8207;52.494;4.654;2022-09-09T13:18:51;5.22;;;2.63;;
16199;SDS011;8207;52.494;4.654;2022-09-09T13:21:30;5.95;;;2.58;;
16199;SDS011;8207;52.494;4.654;2022-09-09T13:23:58;5.97;;;2.50;;
16199;SDS011;8207;52.494;4.654;2022-09-09T13:26:29;5.05;;;2.45;;
16199;SDS011;8207;52.494;4.654;2022-09-09T13:29:07;3.15;;;1.77;;
16199;SDS011;8207;52.494;4.654;2022-09-09T13:31:42;5.03;;;2.20;;
16199;SDS011;8207;52.494;4.654;2022-09-09T13:34:13;3.30;;;2.05;;
16199;SDS011;8207;52.494;4.654;2022-09-09T13:36:40;5.25;;;2.47;;
16199;SDS011;8207;52.494;4.654;2022-09-09T13:39:12;4.55;;;2.20;;
16199;SDS011;8207;52.494;4.654;2022-09-09T13:41:44;4.70;;;2.10;;
16199;SDS011;8207;52.494;4.654;2022-09-09T13:44:16;3.95;;;2.05;;
16199;SDS011;8207;52.494;4.654;2022-09-09T13:46:47;5.45;;;2.70;;
16199;SDS011;8207;52.494;4.654;2022-09-09T13:49:26;4.43;;;2.40;;
16199;SDS011;8207;52.494;4.654;2022-09-09T13:52:03;3.85;;;2.28;;
16199;SDS011;8207;52.494;4.654;2022-09-09T13:54:32;6.53;;;3.05;;
16199;SDS011;8207;52.494;4.654;2022-09-09T13:57:01;4.70;;;2.67;;
16199;SDS011;8207;52.494;4.654;2022-09-09T13:59:29;3.72;;;2.28;;
16199;SDS011;8207;52.494;4.654;2022-09-09T14:01:56;2.50;;;2.20;;
16199;SDS011;8207;52.494;4.654;2022-09-09T14:04:23;4.80;;;2.28;;
16199;SDS011;8207;52.494;4.654;2022-09-09T14:06:50;5.40;;;2.10;;
16199;SDS011;8207;52.494;4.654;2022-09-09T14:09:17;3.60;;;2.00;;
16199;SDS011;8207;52.494;4.654;2022-09-09T14:11:44;4.40;;;2.53;;
16199;SDS011;8207;52.494;4.654;2022-09-09T14:14:13;3.45;;;2.03;;
16199;SDS011;8207;52.494;4.654;2022-09-09T14:16:40;6.10;;;1.80;;
16199;SDS011;8207;52.494;4.654;2022-09-09T14:19:07;2.97;;;1.85;;
16199;SDS011;8207;52.494;4.654;2022-09-09T14:21:34;4.03;;;1.73;;
16199;SDS011;8207;52.494;4.654;2022-09-09T14:24:01;3.58;;;1.83;;
16199;SDS011;8207;52.494;4.654;2022-09-09T14:26:28;3.15;;;1.70;;
16199;SDS011;8207;52.494;4.654;2022-09-09T14:28:55;2.80;;;1.40;;
16199;SDS011;8207;52.494;4.654;2022-09-09T14:31:23;4.65;;;1.95;;
16199;SDS011;8207;52.494;4.654;2022-09-09T14:33:51;3.40;;;1.52;;
16199;SDS011;8207;52.494;4.654;2022-09-09T14:36:18;5.00;;;1.90;;
16199;SDS011;8207;52.494;4.654;2022-09-09T14:38:45;4.70;;;1.90;;
16199;SDS011;8207;52.494;4.654;2022-09-09T14:41:12;5.10;;;2.00;;
16199;SDS011;8207;52.494;4.654;2022-09-09T14:43:41;3.75;;;2.35;;
16199;SDS011;8207;52.494;4.654;2022-09-09T14:46:09;6.32;;;2.33;;
16199;SDS011;8207;52.494;4.654;2022-09-09T14:48:39;4.05;;;2.10;;
16199;SDS011;8207;52.494;4.654;2022-09-09T14:51:07;5.18;;;1.90;;
16199;SDS011;8207;52.494;4.654;2022-09-09T14:53:34;4.47;;;2.05;;
16199;SDS011;8207;52.494;4.654;2022-09-09T14:56:03;5.03;;;1.98;;
16199;SDS011;8207;52.494;4.654;2022-09-09T14:58:31;4.22;;;2.10;;
16199;SDS011;8207;52.494;4.654;2022-09-09T15:01:01;4.53;;;2.58;;
16199;SDS011;8207;52.494;4.654;2022-09-09T15:03:29;2.97;;;2.03;;
16199;SDS011;8207;52.494;4.654;2022-09-09T15:05:57;3.95;;;1.90;;
16199;SDS011;8207;52.494;4.654;2022-09-09T15:08:24;4.75;;;1.77;;
16199;SDS011;8207;52.494;4.654;2022-09-09T15:10:51;4.30;;;2.08;;
16199;SDS011;8207;52.494;4.654;2022-09-09T15:13:25;3.53;;;1.95;;
16199;SDS011;8207;52.494;4.654;2022-09-09T15:15:52;3.50;;;1.80;;
16199;SDS011;8207;52.494;4.654;2022-09-09T15:18:19;3.97;;;1.70;;
16199;SDS011;8207;52.494;4.654;2022-09-09T15:20:46;5.35;;;1.98;;
16199;SDS011;8207;52.494;4.654;2022-09-09T15:23:15;4.32;;;1.75;;
16199;SDS011;8207;52.494;4.654;2022-09-09T15:25:49;5.28;;;1.75;;
16199;SDS011;8207;52.494;4.654;2022-09-09T15:28:18;5.25;;;2.38;;
16199;SDS011;8207;52.494;4.654;2022-09-09T15:30:46;5.82;;;1.98;;
16199;SDS011;8207;52.494;4.654;2022-09-09T15:33:14;6.78;;;1.98;;
16199;SDS011;8207;52.494;4.654;2022-09-09T15:35:41;2.97;;;1.70;;